sensor_id;sensor_type;location;lat;lon;timestamp;P1;durP1;ratioP1;P2;durP2;ratioP2
63398;SDS011;49533;-34.520;150.798;2022-07-29T00:00:07;1.20;;;0.60;;
63398;SDS011;49533;-34.520;150.798;2022-07-29T00:02:36;1.42;;;1.00;;
63398;SDS011;49533;-34.520;150.798;2022-07-29T00:05:03;1.33;;;0.80;;
63398;SDS011;49533;-34.520;150.798;2022-07-29T00:07:31;0.43;;;0.43;;
63398;SDS011;49533;-34.520;150.798;2022-07-29T00:09:58;1.95;;;0.60;;
63398;SDS011;49533;-34.520;150.798;2022-07-29T00:12:25;1.13;;;1.02;;
63398;SDS011;49533;-34.520;150.798;2022-07-29T00:14:55;1.00;;;0.90;;
63398;SDS011;49533;-34.520;150.798;2022-07-29T00:17:23;1.77;;;0.80;;
63398;SDS011;49533;-34.520;150.798;2022-07-29T00:19:50;0.90;;;0.70;;
63398;SDS011;49533;-34.520;150.798;2022-07-29T00:22:18;1.35;;;0.75;;
63398;SDS011;49533;-34.520;150.798;2022-07-29T00:24:46;1.73;;;0.85;;
63398;SDS011;49533;-34.520;150.798;2022-07-29T00:27:14;1.25;;;0.93;;
63398;SDS011;49533;-34.520;150.798;2022-07-29T00:29:42;1.40;;;0.60;;
63398;SDS011;49533;-34.520;150.798;2022-07-29T00:32:09;1.10;;;0.65;;
63398;SDS011;49533;-34.520;150.798;2022-07-29T00:34:36;2.25;;;0.70;;
63398;SDS011;49533;-34.520;150.798;2022-07-29T00:37:21;1.00;;;0.73;;
63398;SDS011;49533;-34.520;150.798;2022-07-29T00:39:48;1.10;;;0.60;;
63398;SDS011;49533;-34.520;150.798;2022-07-29T00:42:16;1.50;;;0.80;;
63398;SDS011;49533;-34.520;150.798;2022-07-29T00:44:43;1.15;;;0.63;;
63398;SDS011;49533;-34.520;150.798;2022-07-29T00:47:11;3.00;;;0.68;;
63398;SDS011;49533;-34.520;150.798;2022-07-29T00:49:39;1.08;;;0.88;;
63398;SDS011;49533;-34.520;150.798;2022-07-29T00:52:07;0.60;;;0.60;;
63398;SDS011;49533;-34.520;150.798;2022-07-29T00:54:36;0.65;;;0.65;;
63398;SDS011;49533;-34.520;150.798;2022-07-29T00:57:05;1.15;;;0.70;;
63398;SDS011;49533;-34.520;150.798;2022-07-29T00:59:34;0.40;;;0.40;;
63398;SDS011;49533;-34.520;150.798;2022-07-29T01:02:03;0.93;;;0.60;;
63398;SDS011;49533;-34.520;150.798;2022-07-29T01:04:31;0.75;;;0.60;;
63398;SDS011;49533;-34.520;150.798;2022-07-29T01:07:00;0.43;;;0.43;;
63398;SDS011;49533;-34.520;150.798;2022-07-29T01:09:28;0.82;;;0.52;;
63398;SDS011;49533;-34.520;150.798;2022-07-29T01:11:59;0.52;;;0.50;;
63398;SDS011;49533;-34.520;150.798;2022-07-29T01:14:28;1.42;;;0.40;;
63398;SDS011;49533;-34.520;150.798;2022-07-29T01:17:04;0.40;;;0.40;;
63398;SDS011;49533;-34.520;150.798;2022-07-29T01:30:49;0.63;;;0.60;;
63398;SDS011;49533;-34.520;150.798;2022-07-29T01:33:20;0.52;;;0.50;;
63398;SDS011;49533;-34.520;150.798;2022-07-29T01:36:13;0.50;;;0.50;;
63398;SDS011;49533;-34.520;150.798;2022-07-29T01:41:35;3.58;;;0.80;;
63398;SDS011;49533;-34.520;150.798;2022-07-29T01:47:14;0.98;;;0.73;;
63398;SDS011;49533;-34.520;150.798;2022-07-29T01:49:50;1.15;;;0.50;;
63398;SDS011;49533;-34.520;150.798;2022-07-29T01:55:21;0.82;;;0.75;;
63398;SDS011;49533;-34.520;150.798;2022-07-29T01:57:51;0.50;;;0.50;;
63398;SDS011;49533;-34.520;150.798;2022-07-29T02:00:19;1.67;;;0.55;;
63398;SDS011;49533;-34.520;150.798;2022-07-29T02:02:48;0.57;;;0.57;;
63398;SDS011;49533;-34.520;150.798;2022-07-29T02:05:17;0.60;;;0.60;;
63398;SDS011;49533;-34.520;150.798;2022-07-29T02:07:46;0.50;;;0.40;;
63398;SDS011;49533;-34.520;150.798;2022-07-29T02:10:15;4.05;;;0.40;;
63398;SDS011;49533;-34.520;150.798;2022-07-29T02:12:45;1.40;;;0.70;;
63398;SDS011;49533;-34.520;150.798;2022-07-29T02:15:14;0.95;;;0.50;;
63398;SDS011;49533;-34.520;150.798;2022-07-29T02:17:47;1.13;;;0.82;;
63398;SDS011;49533;-34.520;150.798;2022-07-29T02:20:20;2.67;;;0.93;;
63398;SDS011;49533;-34.520;150.798;2022-07-29T02:22:51;1.58;;;0.60;;
63398;SDS011;49533;-34.520;150.798;2022-07-29T02:25:19;2.88;;;0.70;;
63398;SDS011;49533;-34.520;150.798;2022-07-29T02:27:50;1.40;;;0.70;;
63398;SDS011;49533;-34.520;150.798;2022-07-29T02:30:18;1.92;;;0.77;;
63398;SDS011;49533;-34.520;150.798;2022-07-29T02:32:47;0.73;;;0.35;;
63398;SDS011;49533;-34.520;150.798;2022-07-29T02:35:16;0.80;;;0.80;;
63398;SDS011;49533;-34.520;150.798;2022-07-29T02:37:45;0.65;;;0.50;;
63398;SDS011;49533;-34.520;150.798;2022-07-29T02:40:33;1.20;;;0.65;;
63398;SDS011;49533;-34.520;150.798;2022-07-29T02:43:02;1.67;;;0.65;;
63398;SDS011;49533;-34.520;150.798;2022-07-29T02:45:32;0.28;;;0.28;;
63398;SDS011;49533;-34.520;150.798;2022-07-29T02:48:00;0.57;;;0.45;;
63398;SDS011;49533;-34.520;150.798;2022-07-29T02:50:37;0.85;;;0.60;;
63398;SDS011;49533;-34.520;150.798;2022-07-29T02:53:14;0.45;;;0.45;;
63398;SDS011;49533;-34.520;150.798;2022-07-29T02:55:51;1.45;;;0.63;;
63398;SDS011;49533;-34.520;150.798;2022-07-29T02:58:41;0.52;;;0.52;;
63398;SDS011;49533;-34.520;150.798;2022-07-29T03:01:16;0.85;;;0.60;;
63398;SDS011;49533;-34.520;150.798;2022-07-29T03:03:48;1.38;;;0.75;;
63398;SDS011;49533;-34.520;150.798;2022-07-29T03:06:18;0.68;;;0.68;;
63398;SDS011;49533;-34.520;150.798;2022-07-29T03:08:47;1.52;;;0.55;;
63398;SDS011;49533;-34.520;150.798;2022-07-29T03:11:15;1.50;;;0.57;;
63398;SDS011;49533;-34.520;150.798;2022-07-29T03:13:44;0.85;;;0.60;;
63398;SDS011;49533;-34.520;150.798;2022-07-29T03:16:11;1.85;;;0.73;;
63398;SDS011;49533;-34.520;150.798;2022-07-29T03:18:39;0.82;;;0.50;;
63398;SDS011;49533;-34.520;150.798;2022-07-29T03:21:07;0.55;;;0.55;;
63398;SDS011;49533;-34.520;150.798;2022-07-29T03:23:35;0.77;;;0.70;;
63398;SDS011;49533;-34.520;150.798;2022-07-29T03:26:02;0.50;;;0.50;;
63398;SDS011;49533;-34.520;150.798;2022-07-29T03:28:29;0.45;;;0.40;;
63398;SDS011;49533;-34.520;150.798;2022-07-29T03:30:56;1.90;;;0.60;;
63398;SDS011;49533;-34.520;150.798;2022-07-29T03:33:23;0.70;;;0.70;;
63398;SDS011;49533;-34.520;150.798;2022-07-29T03:35:50;1.63;;;0.77;;
63398;SDS011;49533;-34.520;150.798;2022-07-29T03:38:17;0.75;;;0.75;;
63398;SDS011;49533;-34.520;150.798;2022-07-29T03:40:56;0.73;;;0.70;;
63398;SDS011;49533;-34.520;150.798;2022-07-29T03:43:27;0.85;;;0.60;;
63398;SDS011;49533;-34.520;150.798;2022-07-29T03:45:59;0.43;;;0.43;;
63398;SDS011;49533;-34.520;150.798;2022-07-29T03:48:29;0.88;;;0.88;;
63398;SDS011;49533;-34.520;150.798;2022-07-29T03:50:59;1.27;;;0.60;;
63398;SDS011;49533;-34.520;150.798;2022-07-29T03:53:27;1.02;;;0.50;;
63398;SDS011;49533;-34.520;150.798;2022-07-29T03:55:54;1.48;;;0.60;;
63398;SDS011;49533;-34.520;150.798;2022-07-29T03:58:26;1.48;;;0.70;;
63398;SDS011;49533;-34.520;150.798;2022-07-29T04:00:56;0.43;;;0.43;;
63398;SDS011;49533;-34.520;150.798;2022-07-29T04:03:24;1.50;;;0.70;;
63398;SDS011;49533;-34.520;150.798;2022-07-29T04:06:01;0.45;;;0.45;;
63398;SDS011;49533;-34.520;150.798;2022-07-29T04:08:31;0.60;;;0.60;;
63398;SDS011;49533;-34.520;150.798;2022-07-29T04:10:59;1.13;;;0.80;;
63398;SDS011;49533;-34.520;150.798;2022-07-29T04:13:27;1.77;;;0.90;;
63398;SDS011;49533;-34.520;150.798;2022-07-29T04:15:54;6.20;;;1.00;;
63398;SDS011;49533;-34.520;150.798;2022-07-29T04:18:21;3.53;;;0.93;;
63398;SDS011;49533;-34.520;150.798;2022-07-29T04:20:49;4.30;;;0.75;;
63398;SDS011;49533;-34.520;150.798;2022-07-29T04:23:16;4.00;;;1.23;;
63398;SDS011;49533;-34.520;150.798;2022-07-29T04:25:43;2.75;;;0.90;;
63398;SDS011;49533;-34.520;150.798;2022-07-29T04:28:11;2.28;;;0.93;;
63398;SDS011;49533;-34.520;150.798;2022-07-29T04:30:38;8.52;;;1.63;;
63398;SDS011;49533;-34.520;150.798;2022-07-29T04:33:06;1.30;;;0.95;;
63398;SDS011;49533;-34.520;150.798;2022-07-29T04:35:37;4.72;;;1.00;;
63398;SDS011;49533;-34.520;150.798;2022-07-29T04:38:04;7.88;;;1.77;;
63398;SDS011;49533;-34.520;150.798;2022-07-29T04:40:32;2.65;;;0.75;;
63398;SDS011;49533;-34.520;150.798;2022-07-29T04:43:00;12.23;;;1.40;;
63398;SDS011;49533;-34.520;150.798;2022-07-29T04:45:27;2.70;;;1.30;;
63398;SDS011;49533;-34.520;150.798;2022-07-29T04:47:54;2.20;;;0.95;;
63398;SDS011;49533;-34.520;150.798;2022-07-29T04:50:22;2.08;;;0.70;;
63398;SDS011;49533;-34.520;150.798;2022-07-29T04:52:49;3.83;;;0.93;;
63398;SDS011;49533;-34.520;150.798;2022-07-29T04:55:16;13.57;;;1.48;;
63398;SDS011;49533;-34.520;150.798;2022-07-29T04:57:43;1.77;;;1.05;;
63398;SDS011;49533;-34.520;150.798;2022-07-29T05:00:10;37.88;;;4.28;;
63398;SDS011;49533;-34.520;150.798;2022-07-29T05:02:38;7.28;;;1.48;;
63398;SDS011;49533;-34.520;150.798;2022-07-29T05:05:05;8.88;;;1.90;;
63398;SDS011;49533;-34.520;150.798;2022-07-29T05:07:32;2.45;;;1.17;;
63398;SDS011;49533;-34.520;150.798;2022-07-29T05:09:59;1.15;;;0.88;;
63398;SDS011;49533;-34.520;150.798;2022-07-29T05:12:26;1.33;;;0.93;;
63398;SDS011;49533;-34.520;150.798;2022-07-29T05:14:53;2.65;;;1.02;;
63398;SDS011;49533;-34.520;150.798;2022-07-29T05:17:20;3.72;;;1.05;;
63398;SDS011;49533;-34.520;150.798;2022-07-29T05:19:47;7.53;;;2.00;;
63398;SDS011;49533;-34.520;150.798;2022-07-29T05:22:17;4.95;;;1.40;;
63398;SDS011;49533;-34.520;150.798;2022-07-29T05:24:45;4.63;;;1.02;;
63398;SDS011;49533;-34.520;150.798;2022-07-29T05:27:12;4.70;;;1.60;;
63398;SDS011;49533;-34.520;150.798;2022-07-29T05:29:39;3.67;;;1.08;;
63398;SDS011;49533;-34.520;150.798;2022-07-29T05:32:06;2.92;;;1.08;;
63398;SDS011;49533;-34.520;150.798;2022-07-29T05:34:34;5.85;;;1.13;;
63398;SDS011;49533;-34.520;150.798;2022-07-29T05:37:01;4.90;;;1.17;;
63398;SDS011;49533;-34.520;150.798;2022-07-29T05:39:28;3.95;;;2.05;;
63398;SDS011;49533;-34.520;150.798;2022-07-29T05:41:55;2.88;;;0.93;;
63398;SDS011;49533;-34.520;150.798;2022-07-29T05:44:22;5.68;;;1.58;;
63398;SDS011;49533;-34.520;150.798;2022-07-29T05:46:49;1.92;;;0.80;;
63398;SDS011;49533;-34.520;150.798;2022-07-29T05:49:16;4.70;;;0.90;;
63398;SDS011;49533;-34.520;150.798;2022-07-29T05:51:43;2.10;;;1.05;;
63398;SDS011;49533;-34.520;150.798;2022-07-29T05:54:11;2.67;;;0.88;;
63398;SDS011;49533;-34.520;150.798;2022-07-29T05:56:38;5.25;;;0.93;;
63398;SDS011;49533;-34.520;150.798;2022-07-29T05:59:05;4.55;;;1.33;;
63398;SDS011;49533;-34.520;150.798;2022-07-29T06:01:32;1.65;;;0.82;;
63398;SDS011;49533;-34.520;150.798;2022-07-29T06:03:59;2.28;;;0.68;;
63398;SDS011;49533;-34.520;150.798;2022-07-29T06:06:27;2.60;;;1.00;;
63398;SDS011;49533;-34.520;150.798;2022-07-29T06:08:54;2.63;;;0.55;;
63398;SDS011;49533;-34.520;150.798;2022-07-29T06:11:21;2.80;;;1.60;;
63398;SDS011;49533;-34.520;150.798;2022-07-29T06:13:48;6.30;;;5.65;;
63398;SDS011;49533;-34.520;150.798;2022-07-29T06:16:15;4.82;;;3.72;;
63398;SDS011;49533;-34.520;150.798;2022-07-29T06:18:42;9.02;;;7.00;;
63398;SDS011;49533;-34.520;150.798;2022-07-29T06:21:09;4.97;;;2.80;;
63398;SDS011;49533;-34.520;150.798;2022-07-29T06:23:37;2.88;;;2.67;;
63398;SDS011;49533;-34.520;150.798;2022-07-29T06:26:05;3.95;;;3.38;;
63398;SDS011;49533;-34.520;150.798;2022-07-29T06:28:32;10.18;;;8.05;;
63398;SDS011;49533;-34.520;150.798;2022-07-29T06:30:59;16.77;;;14.98;;
63398;SDS011;49533;-34.520;150.798;2022-07-29T06:33:26;22.35;;;17.95;;
63398;SDS011;49533;-34.520;150.798;2022-07-29T06:35:53;16.73;;;12.35;;
63398;SDS011;49533;-34.520;150.798;2022-07-29T06:38:20;17.85;;;13.73;;
63398;SDS011;49533;-34.520;150.798;2022-07-29T06:40:48;15.93;;;13.45;;
63398;SDS011;49533;-34.520;150.798;2022-07-29T06:43:37;15.00;;;12.50;;
63398;SDS011;49533;-34.520;150.798;2022-07-29T06:46:07;13.82;;;12.27;;
63398;SDS011;49533;-34.520;150.798;2022-07-29T06:48:36;11.73;;;10.45;;
63398;SDS011;49533;-34.520;150.798;2022-07-29T06:51:04;11.25;;;10.05;;
63398;SDS011;49533;-34.520;150.798;2022-07-29T06:53:32;10.55;;;9.52;;
63398;SDS011;49533;-34.520;150.798;2022-07-29T06:56:00;10.35;;;9.25;;
63398;SDS011;49533;-34.520;150.798;2022-07-29T06:58:29;9.88;;;8.77;;
63398;SDS011;49533;-34.520;150.798;2022-07-29T07:00:57;10.88;;;8.82;;
63398;SDS011;49533;-34.520;150.798;2022-07-29T07:03:26;10.20;;;8.13;;
63398;SDS011;49533;-34.520;150.798;2022-07-29T07:05:53;9.38;;;8.48;;
63398;SDS011;49533;-34.520;150.798;2022-07-29T07:08:21;7.97;;;7.20;;
63398;SDS011;49533;-34.520;150.798;2022-07-29T07:10:52;8.13;;;7.22;;
63398;SDS011;49533;-34.520;150.798;2022-07-29T07:13:20;8.57;;;6.75;;
63398;SDS011;49533;-34.520;150.798;2022-07-29T07:15:47;6.40;;;5.80;;
63398;SDS011;49533;-34.520;150.798;2022-07-29T07:18:16;5.80;;;5.30;;
63398;SDS011;49533;-34.520;150.798;2022-07-29T07:20:44;9.27;;;5.47;;
63398;SDS011;49533;-34.520;150.798;2022-07-29T07:23:11;7.07;;;5.40;;
63398;SDS011;49533;-34.520;150.798;2022-07-29T07:25:38;5.65;;;5.20;;
63398;SDS011;49533;-34.520;150.798;2022-07-29T07:28:05;7.45;;;5.15;;
63398;SDS011;49533;-34.520;150.798;2022-07-29T07:30:32;5.68;;;4.50;;
63398;SDS011;49533;-34.520;150.798;2022-07-29T07:33:00;5.28;;;4.15;;
63398;SDS011;49533;-34.520;150.798;2022-07-29T07:35:27;4.95;;;3.88;;
63398;SDS011;49533;-34.520;150.798;2022-07-29T07:37:55;4.68;;;3.80;;
63398;SDS011;49533;-34.520;150.798;2022-07-29T07:40:22;4.20;;;3.80;;
63398;SDS011;49533;-34.520;150.798;2022-07-29T07:42:50;4.60;;;4.03;;
63398;SDS011;49533;-34.520;150.798;2022-07-29T07:45:17;5.65;;;4.53;;
63398;SDS011;49533;-34.520;150.798;2022-07-29T07:47:44;3.72;;;3.42;;
63398;SDS011;49533;-34.520;150.798;2022-07-29T07:50:12;3.67;;;3.03;;
63398;SDS011;49533;-34.520;150.798;2022-07-29T07:52:50;5.00;;;3.10;;
63398;SDS011;49533;-34.520;150.798;2022-07-29T07:55:20;3.75;;;2.63;;
63398;SDS011;49533;-34.520;150.798;2022-07-29T07:57:47;2.70;;;2.50;;
63398;SDS011;49533;-34.520;150.798;2022-07-29T08:00:15;2.70;;;2.40;;
63398;SDS011;49533;-34.520;150.798;2022-07-29T08:02:42;3.47;;;2.22;;
63398;SDS011;49533;-34.520;150.798;2022-07-29T08:05:10;3.00;;;2.70;;
63398;SDS011;49533;-34.520;150.798;2022-07-29T08:07:42;2.13;;;2.03;;
63398;SDS011;49533;-34.520;150.798;2022-07-29T08:10:16;4.97;;;2.92;;
63398;SDS011;49533;-34.520;150.798;2022-07-29T08:13:06;5.47;;;2.33;;
63398;SDS011;49533;-34.520;150.798;2022-07-29T08:15:34;2.30;;;2.15;;
63398;SDS011;49533;-34.520;150.798;2022-07-29T08:18:02;2.28;;;2.08;;
63398;SDS011;49533;-34.520;150.798;2022-07-29T08:20:29;2.30;;;2.10;;
63398;SDS011;49533;-34.520;150.798;2022-07-29T08:22:58;1.98;;;1.88;;
63398;SDS011;49533;-34.520;150.798;2022-07-29T08:25:25;2.58;;;2.00;;
63398;SDS011;49533;-34.520;150.798;2022-07-29T08:27:52;2.35;;;2.00;;
63398;SDS011;49533;-34.520;150.798;2022-07-29T08:30:20;2.25;;;2.05;;
63398;SDS011;49533;-34.520;150.798;2022-07-29T08:32:47;3.42;;;2.15;;
63398;SDS011;49533;-34.520;150.798;2022-07-29T08:35:18;5.53;;;2.33;;
63398;SDS011;49533;-34.520;150.798;2022-07-29T08:37:46;2.17;;;2.08;;
63398;SDS011;49533;-34.520;150.798;2022-07-29T08:40:13;2.22;;;2.10;;
63398;SDS011;49533;-34.520;150.798;2022-07-29T08:42:40;2.70;;;2.38;;
63398;SDS011;49533;-34.520;150.798;2022-07-29T08:45:08;2.10;;;1.92;;
63398;SDS011;49533;-34.520;150.798;2022-07-29T08:47:35;2.65;;;2.10;;
63398;SDS011;49533;-34.520;150.798;2022-07-29T08:50:05;1.90;;;1.80;;
63398;SDS011;49533;-34.520;150.798;2022-07-29T08:52:40;2.08;;;1.88;;
63398;SDS011;49533;-34.520;150.798;2022-07-29T08:55:08;2.17;;;1.75;;
63398;SDS011;49533;-34.520;150.798;2022-07-29T08:57:36;3.20;;;2.17;;
63398;SDS011;49533;-34.520;150.798;2022-07-29T09:00:06;3.55;;;2.17;;
63398;SDS011;49533;-34.520;150.798;2022-07-29T09:02:39;1.70;;;1.52;;
63398;SDS011;49533;-34.520;150.798;2022-07-29T09:05:07;3.40;;;2.10;;
63398;SDS011;49533;-34.520;150.798;2022-07-29T09:07:35;2.35;;;2.00;;
63398;SDS011;49533;-34.520;150.798;2022-07-29T09:10:05;3.22;;;2.00;;
63398;SDS011;49533;-34.520;150.798;2022-07-29T09:12:32;1.80;;;1.70;;
63398;SDS011;49533;-34.520;150.798;2022-07-29T09:14:59;3.05;;;2.22;;
63398;SDS011;49533;-34.520;150.798;2022-07-29T09:17:39;1.73;;;1.63;;
63398;SDS011;49533;-34.520;150.798;2022-07-29T09:20:11;2.90;;;1.60;;
63398;SDS011;49533;-34.520;150.798;2022-07-29T09:22:39;1.35;;;1.25;;
63398;SDS011;49533;-34.520;150.798;2022-07-29T09:25:07;1.70;;;1.60;;
63398;SDS011;49533;-34.520;150.798;2022-07-29T09:27:34;1.83;;;1.70;;
63398;SDS011;49533;-34.520;150.798;2022-07-29T09:30:03;2.85;;;1.75;;
63398;SDS011;49533;-34.520;150.798;2022-07-29T09:32:32;3.05;;;1.70;;
63398;SDS011;49533;-34.520;150.798;2022-07-29T09:35:20;1.58;;;1.30;;
63398;SDS011;49533;-34.520;150.798;2022-07-29T09:37:49;1.50;;;1.40;;
63398;SDS011;49533;-34.520;150.798;2022-07-29T09:40:20;1.27;;;1.15;;
63398;SDS011;49533;-34.520;150.798;2022-07-29T09:42:49;1.92;;;1.63;;
63398;SDS011;49533;-34.520;150.798;2022-07-29T09:45:28;1.27;;;1.10;;
63398;SDS011;49533;-34.520;150.798;2022-07-29T09:48:00;3.72;;;1.42;;
63398;SDS011;49533;-34.520;150.798;2022-07-29T09:50:43;1.10;;;1.00;;
63398;SDS011;49533;-34.520;150.798;2022-07-29T09:56:00;1.23;;;1.10;;
63398;SDS011;49533;-34.520;150.798;2022-07-29T09:58:27;2.05;;;1.33;;
63398;SDS011;49533;-34.520;150.798;2022-07-29T10:00:55;1.42;;;1.13;;
63398;SDS011;49533;-34.520;150.798;2022-07-29T10:03:22;0.90;;;0.90;;
63398;SDS011;49533;-34.520;150.798;2022-07-29T10:08:33;1.48;;;1.20;;
63398;SDS011;49533;-34.520;150.798;2022-07-29T10:11:10;1.13;;;1.02;;
63398;SDS011;49533;-34.520;150.798;2022-07-29T10:13:47;1.90;;;1.20;;
63398;SDS011;49533;-34.520;150.798;2022-07-29T10:16:15;0.85;;;0.85;;
63398;SDS011;49533;-34.520;150.798;2022-07-29T10:18:43;1.50;;;1.40;;
63398;SDS011;49533;-34.520;150.798;2022-07-29T10:21:12;1.17;;;0.85;;
63398;SDS011;49533;-34.520;150.798;2022-07-29T10:23:39;0.73;;;0.63;;
63398;SDS011;49533;-34.520;150.798;2022-07-29T10:26:08;2.92;;;1.52;;
63398;SDS011;49533;-34.520;150.798;2022-07-29T10:28:37;1.02;;;0.98;;
63398;SDS011;49533;-34.520;150.798;2022-07-29T10:31:05;1.60;;;1.10;;
63398;SDS011;49533;-34.520;150.798;2022-07-29T10:42:23;1.10;;;1.10;;
63398;SDS011;49533;-34.520;150.798;2022-07-29T10:44:53;1.30;;;1.20;;
63398;SDS011;49533;-34.520;150.798;2022-07-29T10:47:24;2.88;;;1.08;;
63398;SDS011;49533;-34.520;150.798;2022-07-29T10:50:02;2.08;;;1.38;;
63398;SDS011;49533;-34.520;150.798;2022-07-29T10:55:32;2.20;;;1.30;;
63398;SDS011;49533;-34.520;150.798;2022-07-29T10:58:36;1.40;;;1.30;;
63398;SDS011;49533;-34.520;150.798;2022-07-29T11:00:57;1.77;;;1.20;;
63398;SDS011;49533;-34.520;150.798;2022-07-29T11:03:44;1.95;;;1.30;;
63398;SDS011;49533;-34.520;150.798;2022-07-29T11:06:13;1.52;;;1.42;;
63398;SDS011;49533;-34.520;150.798;2022-07-29T11:08:40;3.05;;;1.88;;
63398;SDS011;49533;-34.520;150.798;2022-07-29T11:16:17;2.55;;;1.40;;
63398;SDS011;49533;-34.520;150.798;2022-07-29T11:21:39;1.40;;;1.30;;
63398;SDS011;49533;-34.520;150.798;2022-07-29T11:24:14;2.95;;;1.60;;
63398;SDS011;49533;-34.520;150.798;2022-07-29T11:26:44;1.48;;;1.35;;
63398;SDS011;49533;-34.520;150.798;2022-07-29T11:29:20;1.50;;;1.15;;
63398;SDS011;49533;-34.520;150.798;2022-07-29T11:31:49;1.95;;;1.23;;
63398;SDS011;49533;-34.520;150.798;2022-07-29T11:34:22;1.88;;;1.27;;
63398;SDS011;49533;-34.520;150.798;2022-07-29T11:39:33;2.70;;;1.40;;
63398;SDS011;49533;-34.520;150.798;2022-07-29T11:45:00;4.00;;;1.33;;
63398;SDS011;49533;-34.520;150.798;2022-07-29T11:47:51;1.05;;;1.05;;
63398;SDS011;49533;-34.520;150.798;2022-07-29T11:50:35;2.95;;;1.38;;
63398;SDS011;49533;-34.520;150.798;2022-07-29T11:53:10;1.75;;;1.13;;
63398;SDS011;49533;-34.520;150.798;2022-07-29T11:55:38;1.10;;;1.00;;
63398;SDS011;49533;-34.520;150.798;2022-07-29T11:58:06;1.50;;;0.90;;
63398;SDS011;49533;-34.520;150.798;2022-07-29T12:00:38;1.20;;;1.10;;
63398;SDS011;49533;-34.520;150.798;2022-07-29T12:03:22;1.95;;;1.42;;
63398;SDS011;49533;-34.520;150.798;2022-07-29T12:05:51;2.78;;;0.98;;
63398;SDS011;49533;-34.520;150.798;2022-07-29T12:08:19;1.48;;;1.02;;
63398;SDS011;49533;-34.520;150.798;2022-07-29T12:10:51;1.58;;;0.98;;
63398;SDS011;49533;-34.520;150.798;2022-07-29T12:13:19;1.38;;;1.20;;
63398;SDS011;49533;-34.520;150.798;2022-07-29T12:15:56;2.05;;;1.02;;
63398;SDS011;49533;-34.520;150.798;2022-07-29T12:18:23;0.95;;;0.95;;
63398;SDS011;49533;-34.520;150.798;2022-07-29T12:20:57;2.65;;;1.38;;
63398;SDS011;49533;-34.520;150.798;2022-07-29T12:23:29;1.52;;;1.02;;
63398;SDS011;49533;-34.520;150.798;2022-07-29T12:26:00;1.27;;;1.13;;
63398;SDS011;49533;-34.520;150.798;2022-07-29T12:28:31;2.95;;;1.05;;
63398;SDS011;49533;-34.520;150.798;2022-07-29T12:31:04;2.88;;;1.55;;
63398;SDS011;49533;-34.520;150.798;2022-07-29T12:33:31;2.30;;;0.88;;
63398;SDS011;49533;-34.520;150.798;2022-07-29T12:36:00;4.95;;;1.20;;
63398;SDS011;49533;-34.520;150.798;2022-07-29T12:38:29;1.13;;;1.02;;
63398;SDS011;49533;-34.520;150.798;2022-07-29T12:40:56;1.75;;;1.13;;
63398;SDS011;49533;-34.520;150.798;2022-07-29T12:43:24;0.80;;;0.77;;
63398;SDS011;49533;-34.520;150.798;2022-07-29T12:45:52;3.55;;;0.98;;
63398;SDS011;49533;-34.520;150.798;2022-07-29T12:48:36;1.67;;;0.98;;
63398;SDS011;49533;-34.520;150.798;2022-07-29T12:51:05;1.55;;;1.10;;
63398;SDS011;49533;-34.520;150.798;2022-07-29T12:53:34;1.23;;;1.10;;
63398;SDS011;49533;-34.520;150.798;2022-07-29T12:56:02;1.85;;;0.90;;
63398;SDS011;49533;-34.520;150.798;2022-07-29T12:58:32;1.45;;;1.25;;
63398;SDS011;49533;-34.520;150.798;2022-07-29T13:01:11;4.35;;;1.33;;
63398;SDS011;49533;-34.520;150.798;2022-07-29T13:03:44;1.50;;;1.08;;
63398;SDS011;49533;-34.520;150.798;2022-07-29T13:09:11;1.85;;;0.98;;
63398;SDS011;49533;-34.520;150.798;2022-07-29T13:11:46;5.53;;;1.52;;
63398;SDS011;49533;-34.520;150.798;2022-07-29T13:15:00;2.92;;;0.85;;
63398;SDS011;49533;-34.520;150.798;2022-07-29T13:17:13;2.60;;;1.35;;
63398;SDS011;49533;-34.520;150.798;2022-07-29T13:19:49;2.13;;;1.30;;
63398;SDS011;49533;-34.520;150.798;2022-07-29T13:22:31;1.75;;;1.10;;
63398;SDS011;49533;-34.520;150.798;2022-07-29T13:24:59;1.90;;;1.10;;
63398;SDS011;49533;-34.520;150.798;2022-07-29T13:27:32;2.78;;;1.00;;
63398;SDS011;49533;-34.520;150.798;2022-07-29T13:30:02;2.33;;;1.00;;
63398;SDS011;49533;-34.520;150.798;2022-07-29T13:32:32;1.50;;;0.70;;
63398;SDS011;49533;-34.520;150.798;2022-07-29T13:35:04;2.05;;;1.20;;
63398;SDS011;49533;-34.520;150.798;2022-07-29T13:37:33;2.22;;;0.90;;
63398;SDS011;49533;-34.520;150.798;2022-07-29T13:40:04;1.08;;;0.80;;
63398;SDS011;49533;-34.520;150.798;2022-07-29T13:42:32;1.17;;;1.00;;
63398;SDS011;49533;-34.520;150.798;2022-07-29T13:44:59;4.07;;;1.10;;
63398;SDS011;49533;-34.520;150.798;2022-07-29T13:47:27;3.20;;;1.10;;
63398;SDS011;49533;-34.520;150.798;2022-07-29T13:49:54;1.77;;;0.77;;
63398;SDS011;49533;-34.520;150.798;2022-07-29T13:52:21;1.58;;;0.80;;
63398;SDS011;49533;-34.520;150.798;2022-07-29T13:54:48;2.67;;;0.93;;
63398;SDS011;49533;-34.520;150.798;2022-07-29T13:57:16;1.40;;;0.85;;
63398;SDS011;49533;-34.520;150.798;2022-07-29T13:59:43;1.00;;;0.70;;
63398;SDS011;49533;-34.520;150.798;2022-07-29T14:02:10;1.70;;;0.70;;
63398;SDS011;49533;-34.520;150.798;2022-07-29T14:04:38;2.30;;;1.23;;
63398;SDS011;49533;-34.520;150.798;2022-07-29T14:07:06;1.77;;;0.70;;
63398;SDS011;49533;-34.520;150.798;2022-07-29T14:09:33;2.05;;;0.98;;
63398;SDS011;49533;-34.520;150.798;2022-07-29T14:12:01;2.58;;;0.90;;
63398;SDS011;49533;-34.520;150.798;2022-07-29T14:14:28;2.15;;;0.90;;
63398;SDS011;49533;-34.520;150.798;2022-07-29T14:16:57;2.22;;;1.08;;
63398;SDS011;49533;-34.520;150.798;2022-07-29T14:19:24;1.50;;;1.00;;
63398;SDS011;49533;-34.520;150.798;2022-07-29T14:21:51;1.23;;;0.90;;
63398;SDS011;49533;-34.520;150.798;2022-07-29T14:24:18;1.02;;;0.85;;
63398;SDS011;49533;-34.520;150.798;2022-07-29T14:26:46;1.63;;;1.10;;
63398;SDS011;49533;-34.520;150.798;2022-07-29T14:29:13;1.98;;;1.00;;
63398;SDS011;49533;-34.520;150.798;2022-07-29T14:31:40;0.68;;;0.60;;
63398;SDS011;49533;-34.520;150.798;2022-07-29T14:34:09;2.10;;;0.70;;
63398;SDS011;49533;-34.520;150.798;2022-07-29T14:36:36;1.33;;;0.95;;
63398;SDS011;49533;-34.520;150.798;2022-07-29T14:39:03;1.92;;;0.80;;
63398;SDS011;49533;-34.520;150.798;2022-07-29T14:41:30;0.90;;;0.60;;
63398;SDS011;49533;-34.520;150.798;2022-07-29T14:43:57;3.35;;;1.05;;
63398;SDS011;49533;-34.520;150.798;2022-07-29T14:46:26;1.52;;;0.65;;
63398;SDS011;49533;-34.520;150.798;2022-07-29T14:48:53;2.42;;;0.70;;
63398;SDS011;49533;-34.520;150.798;2022-07-29T14:51:20;0.52;;;0.52;;
63398;SDS011;49533;-34.520;150.798;2022-07-29T14:53:47;1.55;;;0.80;;
63398;SDS011;49533;-34.520;150.798;2022-07-29T14:56:14;1.98;;;0.70;;
63398;SDS011;49533;-34.520;150.798;2022-07-29T14:58:41;0.60;;;0.60;;
63398;SDS011;49533;-34.520;150.798;2022-07-29T15:01:09;0.95;;;0.60;;
63398;SDS011;49533;-34.520;150.798;2022-07-29T15:03:36;1.38;;;0.77;;
63398;SDS011;49533;-34.520;150.798;2022-07-29T15:06:03;0.80;;;0.70;;
63398;SDS011;49533;-34.520;150.798;2022-07-29T15:08:30;1.90;;;0.80;;
63398;SDS011;49533;-34.520;150.798;2022-07-29T15:10:57;1.73;;;0.80;;
63398;SDS011;49533;-34.520;150.798;2022-07-29T15:13:25;0.98;;;0.70;;
63398;SDS011;49533;-34.520;150.798;2022-07-29T15:15:52;2.58;;;0.75;;